createdAt,value
2018-05-21T00:00:33.920Z,0.00
2018-05-21T00:01:34.120Z,0.00
2018-05-21T00:02:33.882Z,0.00
2018-05-21T00:03:34.079Z,0.00
2018-05-21T00:04:33.997Z,0.00
2018-05-21T00:05:33.995Z,0.00
2018-05-21T00:06:33.897Z,0.00
2018-05-21T00:07:34.087Z,0.00
2018-05-21T00:08:33.969Z,0.00
2018-05-21T00:09:33.918Z,0.00
2018-05-21T00:10:33.915Z,0.00
2018-05-21T00:11:34.201Z,0.00
2018-05-21T00:12:33.930Z,0.00
2018-05-21T00:13:33.898Z,0.00
2018-05-21T00:14:34.027Z,0.00
2018-05-21T00:15:34.155Z,0.00
2018-05-21T00:16:33.939Z,0.00
2018-05-21T00:17:34.034Z,0.00
2018-05-21T00:18:33.942Z,0.00
2018-05-21T00:19:33.991Z,0.00
2018-05-21T00:20:33.966Z,0.00
2018-05-21T00:21:33.941Z,0.00
2018-05-21T00:22:34.021Z,0.00
2018-05-21T00:23:34.081Z,0.00
2018-05-21T00:24:34.005Z,0.00
2018-05-21T00:25:34.016Z,0.00
2018-05-21T00:26:33.946Z,0.00
2018-05-21T00:27:34.345Z,0.00
2018-05-21T00:28:33.965Z,0.00
2018-05-21T00:29:33.954Z,0.00
2018-05-21T00:30:33.981Z,0.00
2018-05-21T00:31:34.041Z,0.00
2018-05-21T00:32:33.996Z,0.00
2018-05-21T00:33:33.987Z,0.00
2018-05-21T00:34:33.993Z,0.00
2018-05-21T00:35:33.988Z,0.00
2018-05-21T00:36:34.016Z,0.00
2018-05-21T00:37:34.014Z,0.00
2018-05-21T00:38:34.054Z,0.00
2018-05-21T00:39:34.929Z,0.00
2018-05-21T00:40:34.233Z,0.00
2018-05-21T00:41:33.973Z,0.00
2018-05-21T00:42:34.432Z,0.00
2018-05-21T00:43:34.189Z,0.00
2018-05-21T00:44:34.101Z,0.00
2018-05-21T00:45:34.045Z,0.00
2018-05-21T00:46:34.020Z,0.00
2018-05-21T00:47:33.989Z,0.00
2018-05-21T00:48:34.040Z,0.00
2018-05-21T00:49:34.067Z,0.00
2018-05-21T00:50:34.029Z,0.00
2018-05-21T00:51:34.279Z,0.00
2018-05-21T00:52:34.066Z,0.00
2018-05-21T00:53:34.397Z,0.00
2018-05-21T00:54:34.132Z,0.00
2018-05-21T00:55:34.073Z,0.00
2018-05-21T00:56:34.012Z,0.00
2018-05-21T00:57:34.037Z,0.00
2018-05-21T00:58:34.215Z,0.00
2018-05-21T00:59:34.058Z,0.00
2018-05-21T01:00:34.058Z,0.00
2018-05-21T01:01:34.109Z,0.00
2018-05-21T01:02:34.014Z,0.00
2018-05-21T01:03:34.150Z,0.00
2018-05-21T01:04:34.058Z,0.00
2018-05-21T01:05:34.061Z,0.00
2018-05-21T01:06:34.124Z,0.00
2018-05-21T01:07:34.055Z,0.00
2018-05-21T01:08:34.082Z,0.00
2018-05-21T01:09:34.052Z,0.00
2018-05-21T01:10:34.045Z,0.00
2018-05-21T01:11:34.101Z,0.00
2018-05-21T01:12:34.081Z,0.00
2018-05-21T01:13:34.105Z,0.00
2018-05-21T01:14:34.091Z,0.00
2018-05-21T01:15:34.172Z,0.00
2018-05-21T01:16:34.111Z,0.00
2018-05-21T01:17:34.067Z,0.00
2018-05-21T01:18:34.246Z,0.00
2018-05-21T01:19:34.086Z,0.00
2018-05-21T01:20:34.061Z,0.00
2018-05-21T01:21:34.138Z,0.00
2018-05-21T01:22:34.120Z,0.00
2018-05-21T01:23:34.152Z,0.00
2018-05-21T01:24:34.169Z,0.00
2018-05-21T01:25:34.156Z,0.00
2018-05-21T01:26:34.096Z,0.00
2018-05-21T01:27:34.159Z,0.00
2018-05-21T01:28:34.078Z,0.00
2018-05-21T01:29:34.105Z,0.00
2018-05-21T01:30:34.101Z,0.00
2018-05-21T01:31:34.151Z,0.00
2018-05-21T01:32:34.101Z,0.00
2018-05-21T01:33:34.121Z,0.00
2018-05-21T01:34:34.172Z,0.00
2018-05-21T01:35:34.129Z,0.00
2018-05-21T01:36:34.159Z,0.00
2018-05-21T01:37:34.168Z,0.00
2018-05-21T01:38:34.233Z,0.00
2018-05-21T01:39:34.181Z,0.00
2018-05-21T01:46:44.461Z,0.00
2018-05-21T01:48:05.409Z,0.00
2018-05-21T01:48:44.510Z,0.00
2018-05-21T01:49:44.424Z,0.00
2018-05-21T01:51:08.186Z,0.00
2018-05-21T01:51:44.425Z,0.00
2018-05-21T01:52:44.453Z,0.00
2018-05-21T01:53:44.447Z,0.00
2018-05-21T01:54:44.471Z,0.00
2018-05-21T01:55:44.458Z,0.00
2018-05-21T01:56:44.455Z,0.00
2018-05-21T01:57:44.488Z,0.00
2018-05-21T01:58:44.468Z,0.00
2018-05-21T01:59:44.458Z,0.00
2018-05-21T02:00:44.478Z,0.00
2018-05-21T02:01:44.505Z,0.00
2018-05-21T02:02:44.494Z,0.00
2018-05-21T02:03:44.488Z,0.00
2018-05-21T02:04:44.504Z,0.00
2018-05-21T02:05:44.517Z,0.00
2018-05-21T02:06:44.620Z,0.00
2018-05-21T02:07:44.470Z,0.00
2018-05-21T02:08:44.647Z,0.00
2018-05-21T02:09:44.517Z,0.00
2018-05-21T02:10:44.560Z,0.00
2018-05-21T02:11:44.504Z,0.00
2018-05-21T02:12:44.503Z,0.00
2018-05-21T02:13:44.503Z,0.00
2018-05-21T02:14:44.516Z,0.00
2018-05-21T02:15:44.569Z,0.00
2018-05-21T02:16:44.596Z,0.00
2018-05-21T02:17:44.543Z,0.00
2018-05-21T02:18:44.478Z,0.00
2018-05-21T02:19:44.504Z,0.00
2018-05-21T02:20:44.614Z,0.00
2018-05-21T02:21:44.510Z,0.00
2018-05-21T02:22:44.584Z,0.00
2018-05-21T02:23:44.549Z,0.00
2018-05-21T02:24:44.531Z,0.00
2018-05-21T02:25:44.518Z,0.00
2018-05-21T02:26:44.548Z,0.00
2018-05-21T02:27:44.518Z,0.00
2018-05-21T02:28:44.570Z,0.00
2018-05-21T02:29:44.523Z,0.00
2018-05-21T02:30:44.514Z,0.00
2018-05-21T02:31:44.534Z,0.00
2018-05-21T02:32:44.541Z,0.00
2018-05-21T02:33:44.543Z,0.00
2018-05-21T02:34:44.565Z,0.00
2018-05-21T02:35:44.527Z,0.00
2018-05-21T02:36:44.635Z,0.00
2018-05-21T02:37:44.575Z,0.00
2018-05-21T02:38:44.562Z,0.00
2018-05-21T02:39:44.543Z,0.00
2018-05-21T02:40:44.604Z,0.00
2018-05-21T02:41:44.587Z,0.00
2018-05-21T02:42:44.590Z,0.00
2018-05-21T02:43:44.611Z,0.00
2018-05-21T02:44:44.576Z,0.00
2018-05-21T02:45:44.591Z,0.00
2018-05-21T02:46:44.550Z,0.00
2018-05-21T02:47:44.576Z,0.00
2018-05-21T02:48:44.558Z,0.00
2018-05-21T02:49:44.673Z,0.00
2018-05-21T02:50:44.592Z,0.00
2018-05-21T02:51:44.578Z,0.00
2018-05-21T02:52:44.599Z,0.00
2018-05-21T02:53:44.585Z,0.00
2018-05-21T02:54:44.594Z,0.00
2018-05-21T02:55:44.573Z,0.00
2018-05-21T02:56:44.597Z,0.00
2018-05-21T02:57:44.701Z,0.00
2018-05-21T02:58:44.596Z,0.00
2018-05-21T02:59:44.598Z,0.00
2018-05-21T03:00:44.622Z,0.00
2018-05-21T03:01:44.587Z,0.00
2018-05-21T03:02:44.611Z,0.00
2018-05-21T03:03:44.621Z,0.00
2018-05-21T03:04:44.587Z,0.00
2018-05-21T03:05:44.626Z,0.00
2018-05-21T03:06:44.637Z,0.00
2018-05-21T03:07:44.590Z,0.00
2018-05-21T03:08:44.610Z,0.00
2018-05-21T03:09:44.602Z,0.00
2018-05-21T03:10:44.642Z,0.00
2018-05-21T03:11:44.673Z,0.00
2018-05-21T03:12:44.639Z,0.00
2018-05-21T03:13:44.617Z,0.00
2018-05-21T03:14:44.681Z,0.00
2018-05-21T03:15:44.795Z,0.00
2018-05-21T03:16:44.635Z,0.00
2018-05-21T03:17:44.683Z,0.00
2018-05-21T03:18:44.747Z,0.00
2018-05-21T03:19:44.701Z,0.00
2018-05-21T03:20:44.677Z,0.00
2018-05-21T03:21:44.622Z,0.00
2018-05-21T03:22:44.687Z,0.00
2018-05-21T03:23:44.706Z,0.00
2018-05-21T03:24:44.677Z,0.00
2018-05-21T03:25:44.679Z,0.00
2018-05-21T03:26:44.670Z,0.00
2018-05-21T03:27:44.725Z,0.00
2018-05-21T03:28:44.697Z,5.63
2018-05-21T03:29:44.646Z,5.63
2018-05-21T03:30:44.686Z,5.63
2018-05-21T03:31:44.681Z,5.63
2018-05-21T03:32:44.754Z,5.63
2018-05-21T03:33:44.699Z,5.63
2018-05-21T03:34:44.685Z,5.63
2018-05-21T03:35:44.744Z,5.63
2018-05-21T03:36:44.700Z,5.63
2018-05-21T03:37:44.700Z,5.63
2018-05-21T03:38:45.727Z,11.25
2018-05-21T03:39:44.737Z,11.25
2018-05-21T03:40:44.713Z,11.25
2018-05-21T03:41:44.741Z,11.25
2018-05-21T03:42:44.690Z,11.25
2018-05-21T03:43:44.688Z,11.25
2018-05-21T03:44:44.682Z,11.25
2018-05-21T03:45:44.719Z,11.25
2018-05-21T03:46:44.696Z,16.88
2018-05-21T03:47:44.706Z,16.88
2018-05-21T03:48:44.771Z,16.88
2018-05-21T03:49:44.716Z,16.88
2018-05-21T03:50:44.722Z,16.88
2018-05-21T03:51:44.820Z,16.88
2018-05-21T03:52:44.692Z,16.88
2018-05-21T03:53:44.771Z,22.50
2018-05-21T03:54:44.746Z,22.50
2018-05-21T03:55:44.757Z,22.50
2018-05-21T03:56:44.724Z,22.50
2018-05-21T03:57:44.713Z,22.50
2018-05-21T03:58:44.775Z,22.50
2018-05-21T03:59:44.743Z,22.50
2018-05-21T04:00:44.793Z,28.13
2018-05-21T04:01:44.734Z,28.13
2018-05-21T04:02:44.807Z,28.13
2018-05-21T04:03:44.761Z,28.13
2018-05-21T04:04:44.815Z,28.13
2018-05-21T04:05:44.836Z,28.13
2018-05-21T04:06:44.755Z,28.13
2018-05-21T04:07:44.775Z,33.75
2018-05-21T04:08:44.747Z,33.75
2018-05-21T04:09:44.762Z,33.75
2018-05-21T04:10:44.766Z,33.75
2018-05-21T04:11:44.770Z,33.75
2018-05-21T04:12:44.771Z,33.75
2018-05-21T04:13:44.779Z,39.38
2018-05-21T04:14:44.847Z,39.38
2018-05-21T04:15:44.748Z,39.38
2018-05-21T04:16:44.812Z,39.38
2018-05-21T04:17:44.801Z,39.38
2018-05-21T04:18:44.788Z,39.38
2018-05-21T04:19:44.832Z,45.00
2018-05-21T04:20:44.876Z,45.00
2018-05-21T04:21:44.820Z,45.00
2018-05-21T04:22:44.831Z,45.00
2018-05-21T04:23:44.777Z,45.00
2018-05-21T04:24:44.804Z,50.63
2018-05-21T04:25:44.796Z,50.63
2018-05-21T04:26:44.797Z,50.63
2018-05-21T04:27:44.795Z,50.63
2018-05-21T04:28:44.789Z,50.63
2018-05-21T04:29:44.827Z,50.63
2018-05-21T04:30:44.883Z,50.63
2018-05-21T04:31:44.873Z,56.25
2018-05-21T04:32:44.840Z,56.25
2018-05-21T04:33:44.811Z,56.25
2018-05-21T04:34:44.869Z,56.25
2018-05-21T04:35:44.821Z,56.25
2018-05-21T04:36:44.895Z,56.25
2018-05-21T04:37:44.833Z,61.88
2018-05-21T04:38:44.865Z,61.88
2018-05-21T04:39:44.805Z,61.88
2018-05-21T04:40:44.825Z,61.88
2018-05-21T04:41:44.840Z,61.88
2018-05-21T04:42:44.842Z,61.88
2018-05-21T04:43:44.886Z,67.50
2018-05-21T04:44:44.839Z,67.50
2018-05-21T04:45:44.903Z,67.50
2018-05-21T04:46:44.848Z,67.50
2018-05-21T04:47:44.861Z,67.50
2018-05-21T04:48:44.851Z,67.50
2018-05-21T04:49:45.048Z,73.13
2018-05-21T04:50:44.860Z,73.13
2018-05-21T04:51:44.901Z,73.13
2018-05-21T04:52:44.888Z,73.13
2018-05-21T04:53:44.848Z,73.13
2018-05-21T04:54:44.823Z,73.13
2018-05-21T04:55:45.639Z,78.75
2018-05-21T04:56:44.876Z,78.75
2018-05-21T04:57:44.859Z,78.75
2018-05-21T04:58:44.864Z,78.75
2018-05-21T04:59:44.869Z,84.38
2018-05-21T05:00:44.878Z,84.38
2018-05-21T05:01:44.853Z,84.38
2018-05-21T05:02:44.878Z,90.00
2018-05-21T05:03:44.985Z,90.00
2018-05-21T05:04:44.911Z,95.63
2018-05-21T05:05:44.928Z,95.63
2018-05-21T05:06:44.855Z,95.63
2018-05-21T05:07:44.920Z,106.88
2018-05-21T05:08:45.012Z,106.88
2018-05-21T05:09:44.912Z,112.50
2018-05-21T05:10:44.952Z,118.13
2018-05-21T05:11:44.933Z,118.13
2018-05-21T05:12:44.923Z,123.75
2018-05-21T05:13:44.927Z,106.88
2018-05-21T05:14:45.012Z,123.75
2018-05-21T05:15:44.916Z,106.88
2018-05-21T05:16:45.020Z,112.50
2018-05-21T05:17:45.043Z,112.50
2018-05-21T05:18:44.926Z,163.13
2018-05-21T05:19:45.026Z,213.75
2018-05-21T05:20:45.015Z,264.38
2018-05-21T05:21:44.999Z,286.88
2018-05-21T05:22:44.967Z,292.50
2018-05-21T05:23:44.954Z,292.50
2018-05-21T05:24:45.046Z,303.75
2018-05-21T05:25:44.968Z,303.75
2018-05-21T05:26:45.116Z,309.38
2018-05-21T05:27:44.962Z,315.00
2018-05-21T05:28:44.923Z,315.00
2018-05-21T05:29:44.958Z,320.63
2018-05-21T05:30:44.998Z,326.25
2018-05-21T05:31:45.066Z,331.88
2018-05-21T05:32:44.972Z,337.50
2018-05-21T05:33:44.979Z,151.88
2018-05-21T05:34:44.964Z,337.50
2018-05-21T05:35:45.049Z,157.50
2018-05-21T05:36:44.991Z,354.38
2018-05-21T05:37:45.121Z,354.38
2018-05-21T05:38:45.052Z,360.00
2018-05-21T05:39:45.013Z,371.25
2018-05-21T05:40:45.015Z,180.00
2018-05-21T05:41:44.985Z,174.38
2018-05-21T05:42:44.999Z,388.13
2018-05-21T05:43:45.035Z,388.13
2018-05-21T05:44:45.026Z,185.63
2018-05-21T05:45:45.020Z,191.25
2018-05-21T05:46:45.041Z,393.75
2018-05-21T05:47:45.039Z,388.13
2018-05-21T05:48:45.094Z,185.63
2018-05-21T05:49:45.090Z,185.63
2018-05-21T05:50:44.994Z,185.63
2018-05-21T05:51:44.991Z,180.00
2018-05-21T05:52:45.046Z,185.63
2018-05-21T05:53:45.109Z,185.63
2018-05-21T05:54:45.020Z,191.25
2018-05-21T05:55:45.025Z,247.50
2018-05-21T05:56:45.077Z,343.13
2018-05-21T05:57:45.014Z,202.50
2018-05-21T05:58:45.064Z,258.75
2018-05-21T05:59:45.110Z,196.88
2018-05-21T06:00:45.075Z,275.63
2018-05-21T06:01:45.054Z,343.13
2018-05-21T06:02:45.681Z,416.25
2018-05-21T06:03:45.132Z,444.38
2018-05-21T06:04:45.058Z,466.88
2018-05-21T06:05:45.073Z,264.38
2018-05-21T06:06:45.086Z,478.13
2018-05-21T06:07:45.192Z,208.13
2018-05-21T06:08:45.085Z,472.50
2018-05-21T06:09:45.120Z,208.13
2018-05-21T06:10:45.128Z,500.63
2018-05-21T06:11:45.159Z,506.25
2018-05-21T06:12:45.106Z,511.88
2018-05-21T06:13:45.246Z,511.88
2018-05-21T06:14:45.173Z,517.50
2018-05-21T06:15:45.117Z,523.13
2018-05-21T06:16:45.196Z,523.13
2018-05-21T06:17:45.128Z,528.75
2018-05-21T06:18:45.172Z,534.38
2018-05-21T06:19:45.244Z,545.63
2018-05-21T06:20:45.262Z,540.00
2018-05-21T06:21:45.170Z,540.00
2018-05-21T06:22:45.168Z,540.00
2018-05-21T06:23:45.195Z,540.00
2018-05-21T06:24:45.271Z,540.00
2018-05-21T06:25:45.296Z,545.63
2018-05-21T06:26:45.206Z,551.25
2018-05-21T06:27:45.217Z,556.88
2018-05-21T06:28:45.232Z,562.50
2018-05-21T06:29:45.265Z,568.13
2018-05-21T06:30:45.315Z,573.75
2018-05-21T06:31:45.325Z,573.75
2018-05-21T06:32:45.247Z,579.38
2018-05-21T06:33:45.265Z,579.38
2018-05-21T06:34:45.380Z,585.00
2018-05-21T06:35:45.301Z,590.63
2018-05-21T06:36:45.295Z,596.25
2018-05-21T06:37:45.298Z,601.88
2018-05-21T06:38:45.335Z,607.50
2018-05-21T06:39:45.291Z,607.50
2018-05-21T06:40:45.296Z,613.13
2018-05-21T06:41:45.315Z,618.75
2018-05-21T06:42:45.296Z,618.75
2018-05-21T06:43:45.362Z,624.38
2018-05-21T06:44:45.416Z,624.38
2018-05-21T06:45:45.378Z,630.00
2018-05-21T06:46:45.506Z,630.00
2018-05-21T06:47:45.432Z,630.00
2018-05-21T06:48:45.375Z,635.63
2018-05-21T06:49:45.381Z,641.25
2018-05-21T06:50:45.378Z,641.25
2018-05-21T06:51:45.423Z,641.25
2018-05-21T06:52:45.444Z,646.88
2018-05-21T06:53:45.643Z,652.50
2018-05-21T06:54:45.599Z,658.13
2018-05-21T06:55:45.459Z,663.75
2018-05-21T06:56:45.443Z,669.38
2018-05-21T06:57:45.515Z,669.38
2018-05-21T06:58:45.577Z,680.63
2018-05-21T06:59:45.555Z,686.25
2018-05-21T07:00:45.580Z,686.25
2018-05-21T07:01:45.501Z,691.88
2018-05-21T07:02:45.565Z,691.88
2018-05-21T07:03:45.506Z,697.50
2018-05-21T07:04:45.551Z,703.13
2018-05-21T07:05:46.203Z,703.13
2018-05-21T07:06:45.636Z,703.13
2018-05-21T07:07:45.600Z,708.75
2018-05-21T07:08:45.686Z,714.38
2018-05-21T07:09:45.628Z,720.00
2018-05-21T07:10:45.619Z,725.63
2018-05-21T07:11:45.775Z,725.63
2018-05-21T07:12:45.572Z,736.88
2018-05-21T07:13:45.686Z,736.88
2018-05-21T07:14:45.752Z,736.88
2018-05-21T07:15:45.921Z,742.50
2018-05-21T07:16:45.653Z,742.50
2018-05-21T07:17:45.730Z,748.13
2018-05-21T07:18:45.762Z,753.75
2018-05-21T07:19:45.727Z,753.75
2018-05-21T07:20:45.823Z,765.00
2018-05-21T07:21:45.756Z,765.00
2018-05-21T07:22:45.755Z,770.63
2018-05-21T07:23:46.711Z,770.63
2018-05-21T07:24:45.796Z,781.88
2018-05-21T07:25:45.932Z,787.50
2018-05-21T07:26:45.812Z,787.50
2018-05-21T07:27:45.865Z,798.75
2018-05-21T07:28:45.913Z,804.38
2018-05-21T07:29:45.815Z,821.25
2018-05-21T07:30:45.841Z,821.25
2018-05-21T07:31:46.005Z,821.25
2018-05-21T07:32:45.879Z,832.50
2018-05-21T07:33:45.846Z,832.50
2018-05-21T07:34:45.946Z,838.13
2018-05-21T07:35:46.736Z,843.75
2018-05-21T07:36:45.928Z,849.38
2018-05-21T07:37:45.930Z,855.00
2018-05-21T07:38:45.966Z,866.25
2018-05-21T07:39:46.044Z,866.25
2018-05-21T07:40:46.068Z,871.88
2018-05-21T07:41:46.183Z,877.50
2018-05-21T07:42:46.025Z,883.13
2018-05-21T07:43:46.026Z,883.13
2018-05-21T07:44:46.044Z,888.75
2018-05-21T07:45:46.054Z,905.63
2018-05-21T07:46:46.192Z,905.63
2018-05-21T07:47:46.061Z,911.25
2018-05-21T07:48:46.090Z,922.50
2018-05-21T07:49:46.078Z,939.38
2018-05-21T07:50:46.078Z,939.38
2018-05-21T07:51:46.148Z,945.00
2018-05-21T07:52:46.337Z,961.88
2018-05-21T07:53:46.212Z,973.13
2018-05-21T07:54:46.162Z,984.38
2018-05-21T07:55:46.122Z,990.00
2018-05-21T07:56:46.216Z,1001.25
2018-05-21T07:57:46.163Z,1012.50
2018-05-21T07:58:46.191Z,1023.75
2018-05-21T07:59:46.253Z,1040.63
2018-05-21T08:00:46.750Z,1046.25
2018-05-21T08:01:46.244Z,1051.88
2018-05-21T08:02:46.367Z,1063.13
2018-05-21T08:03:46.329Z,1068.75
2018-05-21T08:04:46.354Z,1085.63
2018-05-21T08:05:46.422Z,1096.88
2018-05-21T08:06:46.397Z,1125.00
2018-05-21T08:07:47.238Z,1136.25
2018-05-21T08:08:46.414Z,1153.13
2018-05-21T08:09:46.406Z,1175.63
2018-05-21T08:10:46.560Z,1203.75
2018-05-21T08:11:46.459Z,1237.50
2018-05-21T08:12:46.563Z,1276.88
2018-05-21T08:13:46.484Z,1321.88
2018-05-21T08:14:46.571Z,1378.13
2018-05-21T08:15:46.499Z,1428.75
2018-05-21T08:16:46.590Z,1507.50
2018-05-21T08:17:46.548Z,1625.63
2018-05-21T08:18:46.473Z,1760.63
2018-05-21T08:19:46.562Z,1856.25
2018-05-21T08:20:46.501Z,1985.63
2018-05-21T08:21:46.584Z,2131.88
2018-05-21T08:22:46.606Z,2266.88
2018-05-21T08:23:46.792Z,2396.25
2018-05-21T08:24:46.609Z,2587.50
2018-05-21T08:25:46.590Z,2880.00
2018-05-21T08:26:46.994Z,3330.00
2018-05-21T08:27:47.427Z,3864.38
2018-05-21T08:28:46.669Z,4325.63
2018-05-21T08:29:46.693Z,4826.25
2018-05-21T08:30:46.766Z,5197.50
2018-05-21T08:31:46.724Z,5416.88
2018-05-21T08:32:46.914Z,5563.13
2018-05-21T08:33:46.819Z,5563.13
2018-05-21T08:34:46.877Z,5287.50
2018-05-21T08:35:46.954Z,5073.75
2018-05-21T08:36:46.817Z,4944.38
2018-05-21T08:37:46.796Z,4961.25
2018-05-21T08:38:47.088Z,4916.25
2018-05-21T08:39:47.084Z,4848.75
2018-05-21T08:40:47.037Z,4567.50
2018-05-21T08:41:47.017Z,4275.00
2018-05-21T08:42:47.082Z,4117.50
2018-05-21T08:43:47.117Z,3988.13
2018-05-21T08:44:46.921Z,3886.88
2018-05-21T08:45:47.023Z,3611.25
2018-05-21T08:46:47.139Z,3358.13
2018-05-21T08:47:47.001Z,3262.50
2018-05-21T08:48:47.027Z,3301.88
2018-05-21T08:49:47.163Z,3256.88
2018-05-21T08:50:47.157Z,3228.75
2018-05-21T08:51:47.029Z,3133.13
2018-05-21T08:52:47.083Z,2998.13
2018-05-21T08:53:47.092Z,2981.25
2018-05-21T08:54:47.149Z,2992.50
2018-05-21T08:55:47.162Z,3020.63
2018-05-21T08:56:47.341Z,3155.63
2018-05-21T08:57:47.141Z,3121.88
2018-05-21T08:58:47.316Z,3099.38
2018-05-21T08:59:47.779Z,2998.13
2018-05-21T09:00:47.243Z,2868.75
2018-05-21T09:01:47.277Z,2936.25
2018-05-21T09:02:47.291Z,2998.13
2018-05-21T09:03:47.233Z,2970.00
2018-05-21T09:04:47.377Z,2925.00
2018-05-21T09:05:47.368Z,2818.13
2018-05-21T09:06:47.344Z,2767.50
2018-05-21T09:07:47.359Z,2790.00
2018-05-21T09:08:47.565Z,2812.50
2018-05-21T09:09:47.372Z,2840.63
2018-05-21T09:10:47.501Z,2829.38
2018-05-21T09:11:47.467Z,2812.50
2018-05-21T09:12:47.418Z,2750.63
2018-05-21T09:13:47.644Z,2806.88
2018-05-21T09:14:47.506Z,2801.25
2018-05-21T09:15:47.721Z,2896.88
2018-05-21T09:26:07.196Z,3110.63
2018-05-21T09:27:08.387Z,3110.63
2018-05-21T09:28:08.677Z,3110.63
2018-05-21T09:29:07.741Z,3223.13
2018-05-21T09:30:06.456Z,3256.88
2018-05-21T09:31:06.456Z,3273.75
2018-05-21T09:32:06.433Z,3318.75
2018-05-21T09:33:06.443Z,3459.38
2018-05-21T09:34:06.517Z,3403.13
2018-05-21T09:35:06.480Z,3594.38
2018-05-21T09:36:06.560Z,3673.13
2018-05-21T09:37:06.531Z,3825.00
2018-05-21T09:38:06.538Z,3931.88
2018-05-21T09:39:06.566Z,3864.38
2018-05-21T09:40:06.654Z,3808.13
2018-05-21T09:41:06.631Z,3819.38
2018-05-21T09:42:06.726Z,3678.75
2018-05-21T09:43:06.694Z,3757.50
2018-05-21T09:44:06.656Z,3628.13
2018-05-21T09:45:06.694Z,3549.38
2018-05-21T09:46:06.721Z,3616.88
2018-05-21T09:47:06.723Z,3763.13
2018-05-21T09:48:06.740Z,3780.00
2018-05-21T09:49:06.806Z,3791.25
2018-05-21T09:50:06.781Z,3836.25
2018-05-21T09:51:06.812Z,3774.38
2018-05-21T09:52:06.825Z,3841.88
2018-05-21T09:53:06.838Z,3830.63
2018-05-21T09:54:06.859Z,3825.00
2018-05-21T09:55:06.957Z,3858.75
2018-05-21T09:56:06.889Z,3892.50
2018-05-21T09:57:06.904Z,3971.25
2018-05-21T09:58:06.967Z,3920.63
2018-05-21T09:59:07.801Z,4089.38
2018-05-21T10:00:06.992Z,4196.25
2018-05-21T10:01:07.009Z,4185.00
2018-05-21T10:02:07.009Z,4111.88
2018-05-21T10:03:07.038Z,4038.75
2018-05-21T10:04:07.111Z,4061.25
2018-05-21T10:05:07.066Z,3982.50
2018-05-21T10:06:07.097Z,3909.38
2018-05-21T10:07:07.154Z,3841.88
2018-05-21T10:08:07.140Z,3853.13
2018-05-21T10:09:07.162Z,3695.63
2018-05-21T10:10:07.208Z,3453.75
2018-05-21T10:11:07.242Z,3330.00
2018-05-21T10:12:07.242Z,3020.63
2018-05-21T10:13:07.226Z,2700.00
2018-05-21T10:14:07.295Z,2570.63
2018-05-21T10:15:07.262Z,2503.13
2018-05-21T10:16:07.364Z,2463.75
2018-05-21T10:17:07.321Z,2407.50
2018-05-21T10:18:07.415Z,2351.25
2018-05-21T10:19:07.346Z,2300.63
2018-05-21T10:20:07.401Z,2261.25
2018-05-21T10:21:07.454Z,2216.25
2018-05-21T10:22:07.485Z,2148.75
2018-05-21T10:23:07.410Z,2103.75
2018-05-21T10:24:07.446Z,2064.38
2018-05-21T10:25:07.448Z,2036.25
2018-05-21T10:26:07.579Z,2013.75
2018-05-21T10:27:07.492Z,2036.25
2018-05-21T10:28:07.545Z,2053.13
2018-05-21T10:29:07.560Z,2081.25
2018-05-21T10:30:07.551Z,2176.88
2018-05-21T10:31:07.633Z,2610.00
2018-05-21T10:32:07.613Z,3234.38
2018-05-21T10:33:07.601Z,3909.38
2018-05-21T10:34:07.639Z,4207.50
2018-05-21T10:35:07.709Z,3982.50
2018-05-21T10:36:07.665Z,3976.88
2018-05-21T10:37:07.820Z,4196.25
2018-05-21T10:38:07.697Z,4449.38
2018-05-21T10:39:07.711Z,4348.13
2018-05-21T10:40:07.737Z,4601.25
2018-05-21T10:41:07.780Z,3583.13
2018-05-21T10:42:07.831Z,1395.00
2018-05-21T10:43:07.781Z,303.75
2018-05-21T10:44:07.796Z,230.63
2018-05-21T10:45:07.811Z,225.00
2018-05-21T10:46:07.856Z,230.63
2018-05-21T10:47:07.903Z,225.00
2018-05-21T10:48:07.885Z,225.00
2018-05-21T10:49:07.908Z,219.38
2018-05-21T10:50:07.893Z,219.38
2018-05-21T10:51:07.910Z,213.75
2018-05-21T10:52:07.912Z,213.75
2018-05-21T10:53:07.974Z,213.75
2018-05-21T10:54:07.941Z,213.75
2018-05-21T10:55:07.951Z,213.75
2018-05-21T10:56:08.023Z,213.75
2018-05-21T10:57:07.976Z,213.75
2018-05-21T10:58:08.019Z,208.13
2018-05-21T10:59:08.006Z,208.13
2018-05-21T11:00:08.016Z,208.13
2018-05-21T11:01:08.034Z,202.50
2018-05-21T11:02:08.029Z,196.88
2018-05-21T11:03:08.044Z,196.88
2018-05-21T11:04:08.138Z,196.88
2018-05-21T11:05:08.104Z,196.88
2018-05-21T11:06:08.085Z,196.88
2018-05-21T11:07:08.176Z,196.88
2018-05-21T11:08:08.107Z,196.88
2018-05-21T11:09:08.114Z,196.88
2018-05-21T11:10:08.138Z,196.88
2018-05-21T11:11:08.138Z,196.88
2018-05-21T11:12:08.230Z,196.88
2018-05-21T11:13:08.148Z,196.88
2018-05-21T11:14:08.159Z,191.25
2018-05-21T11:15:08.197Z,191.25
2018-05-21T11:17:08.245Z,191.25
2018-05-21T11:18:08.226Z,185.63
2018-05-21T11:19:08.229Z,180.00
2018-05-21T11:20:08.210Z,180.00
2018-05-21T11:21:08.258Z,180.00
2018-05-21T11:22:08.302Z,180.00
2018-05-21T11:23:08.242Z,180.00
2018-05-21T11:24:08.289Z,180.00
2018-05-21T11:25:08.258Z,180.00
2018-05-21T11:26:08.278Z,174.38
2018-05-21T11:27:08.322Z,174.38
2018-05-21T11:28:08.289Z,174.38
2018-05-21T11:29:08.341Z,174.38
2018-05-21T11:30:08.300Z,174.38
2018-05-21T11:31:08.302Z,174.38
2018-05-21T11:32:08.341Z,174.38
2018-05-21T11:33:08.309Z,168.75
2018-05-21T11:34:08.325Z,168.75
2018-05-21T11:35:08.335Z,163.13
2018-05-21T11:36:08.857Z,163.13
2018-05-21T11:37:08.402Z,163.13
2018-05-21T11:38:08.370Z,163.13
2018-05-21T11:39:08.369Z,163.13
2018-05-21T11:40:08.487Z,168.75
2018-05-21T11:41:08.396Z,168.75
2018-05-21T11:42:08.384Z,168.75
2018-05-21T11:43:08.462Z,168.75
2018-05-21T11:44:08.424Z,168.75
2018-05-21T11:45:08.409Z,168.75
2018-05-21T11:46:08.443Z,168.75
2018-05-21T11:47:08.475Z,168.75
2018-05-21T11:48:08.433Z,163.13
2018-05-21T11:49:08.441Z,163.13
2018-05-21T11:50:08.457Z,163.13
2018-05-21T11:51:08.452Z,163.13
2018-05-21T11:52:08.523Z,157.50
2018-05-21T11:53:08.472Z,163.13
2018-05-21T11:54:08.483Z,157.50
2018-05-21T11:55:08.482Z,151.88
2018-05-21T11:56:08.498Z,151.88
2018-05-21T11:57:08.523Z,151.88
2018-05-21T11:58:08.571Z,146.25
2018-05-21T11:59:08.515Z,146.25
2018-05-21T12:00:08.572Z,146.25
2018-05-21T12:01:08.542Z,146.25
2018-05-21T12:02:08.639Z,146.25
2018-05-21T12:03:08.576Z,146.25
2018-05-21T12:04:08.551Z,146.25
2018-05-21T12:05:08.555Z,146.25
2018-05-21T12:06:08.700Z,146.25
2018-05-21T12:07:08.571Z,146.25
2018-05-21T12:08:08.578Z,146.25
2018-05-21T12:09:08.614Z,146.25
2018-05-21T12:10:08.592Z,146.25
2018-05-21T12:11:08.602Z,146.25
2018-05-21T12:12:08.597Z,146.25
2018-05-21T12:13:08.607Z,140.63
2018-05-21T12:14:08.664Z,140.63
2018-05-21T12:15:08.620Z,140.63
2018-05-21T12:16:09.374Z,140.63
2018-05-21T12:17:08.700Z,140.63
2018-05-21T12:18:08.642Z,140.63
2018-05-21T12:19:08.715Z,140.63
2018-05-21T12:20:08.657Z,140.63
2018-05-21T12:21:08.676Z,140.63
2018-05-21T12:22:08.684Z,140.63
2018-05-21T12:23:08.688Z,140.63
2018-05-21T12:24:08.738Z,140.63
2018-05-21T12:25:08.741Z,140.63
2018-05-21T12:26:09.375Z,140.63
2018-05-21T12:27:08.770Z,135.00
2018-05-21T12:28:08.711Z,140.63
2018-05-21T12:29:08.822Z,135.00
2018-05-21T12:30:08.752Z,135.00
2018-05-21T12:31:08.760Z,135.00
2018-05-21T12:32:08.756Z,135.00
2018-05-21T12:33:08.770Z,135.00
2018-05-21T12:34:08.764Z,135.00
2018-05-21T12:35:08.815Z,140.63
2018-05-21T12:36:08.765Z,140.63
2018-05-21T12:37:08.771Z,135.00
2018-05-21T12:38:08.881Z,135.00
2018-05-21T12:39:08.834Z,135.00
2018-05-21T12:40:08.841Z,135.00
2018-05-21T12:41:08.797Z,135.00
2018-05-21T12:42:08.819Z,135.00
2018-05-21T12:43:08.872Z,135.00
2018-05-21T12:44:08.871Z,129.38
2018-05-21T12:45:08.881Z,129.38
2018-05-21T12:46:08.872Z,129.38
2018-05-21T12:47:08.902Z,129.38
2018-05-21T12:48:08.862Z,129.38
2018-05-21T12:49:08.852Z,129.38
2018-05-21T12:50:08.905Z,129.38
2018-05-21T12:51:08.870Z,129.38
2018-05-21T12:52:08.935Z,129.38
2018-05-21T12:53:08.892Z,123.75
2018-05-21T12:54:09.013Z,123.75
2018-05-21T12:55:08.924Z,123.75
2018-05-21T12:56:08.898Z,123.75